Time;durP1;ratioP1;P1;durP2;ratioP2;P2;SDS_P1;SDS_P2;PMS_P1;PMS_P2;Temp;Humidity;BMP_temperature;BMP_pressure;BME280_temperature;BME280_humidity;BME280_pressure;Samples;Min_cycle;Max_cycle;Signal;HPM_P1;HPM_P2
2021/05/04 00:02:22;;;;;;;;;;;;;;;;;;4414958;32;19958;-84
2021/05/04 00:04:52;;;;;;;;;;;;;;;;;;4414865;32;19954;-84
2021/05/04 00:07:22;;;;;;;;;;;;;;;;;;4414466;32;20336;-84
2021/05/04 00:09:52;;;;;;;;;;;;;;;;;;4414622;32;19988;-84
2021/05/04 00:12:22;;;;;;;;;;;;;;;;;;4414898;32;19980;-85
2021/05/04 00:14:51;;;;;;;;;;;;;;;;;;4404730;32;20374;-84
2021/05/04 00:17:21;;;;;;;;;;;;;;;;;;4406380;32;20024;-85
2021/05/04 00:19:51;;;;;;;;;;;;;;;;;;4407164;32;20636;-85
2021/05/04 00:22:22;;;;;;;;;;;;;;;;;;4412386;32;19987;-84
2021/05/04 00:24:52;;;;;;;;;;;;;;;;;;4411532;32;20498;-86
2021/05/04 00:27:23;;;;;;;;;;;;;;;;;;4408710;32;19962;-83
2021/05/04 00:30:05;;;;;;;;;;;;;;;;;;4410315;32;19964;-84
2021/05/04 00:32:35;;;;;;;;;;;;;;;;;;4409067;32;19990;-84
2021/05/04 00:35:06;;;;;;;;;;;;;;;;;;4408075;32;20459;-85
2021/05/04 00:37:34;;;;;;;;;;;;;;;;;;4407196;32;19943;-84
2021/05/04 00:40:05;;;;;;;;;;;;;;;;;;4398210;32;19958;-84
2021/05/04 00:42:35;;;;;;;;;;;;;;;;;;4409753;32;19963;-84
2021/05/04 00:45:05;;;;;;;;;;;;;;;;;;4408863;32;19953;-85
2021/05/04 00:47:36;;;;;;;;;;;;;;;;;;4411347;32;20119;-85
2021/05/04 00:50:04;;;;;;;;;;;;;;;;;;4412882;32;19998;-85
2021/05/04 00:52:34;;;;;;;;;;;;;;;;;;4411472;32;19980;-85
2021/05/04 00:55:10;;;;;;;;;;;;;;;;;;4389097;32;20321;-84
2021/05/04 00:57:41;;;;;;;;;;;;;;;;;;4404355;32;20314;-85
2021/05/04 01:00:12;;;;;;;;;;;;;;;;;;4399986;32;19965;-85
2021/05/04 01:02:43;;;;;;;;;;;;;;;;;;4409030;32;20425;-85
2021/05/04 01:05:14;;;;;;;;;;;;;;;;;;4409044;32;20304;-85
2021/05/04 01:07:45;;;;;;;;;;;;;;;;;;4412497;32;19949;-84
2021/05/04 01:10:13;;;;;;;;;;;;;;;;;;4412675;32;19973;-85
2021/05/04 01:12:43;;;;;;;;;;;;;;;;;;4403171;32;20103;-84
2021/05/04 01:15:14;;;;;;;;;;;;;;;;;;4407388;32;20296;-84
2021/05/04 01:17:42;;;;;;;;;;;;;;;;;;4406485;32;19998;-85
2021/05/04 01:20:12;;;;;;;;;;;;;;;;;;4412757;32;19950;-85
2021/05/04 01:22:43;;;;;;;;;;;;;;;;;;4407386;32;19970;-84
2021/05/04 01:25:15;;;;;;;;;;;;;;;;;;4411866;32;20021;-85
2021/05/04 01:27:46;;;;;;;;;;;;;;;;;;4409563;32;19946;-84
2021/05/04 01:30:32;;;;;;;;;;;;;;;;;;4407781;32;20339;-84
2021/05/04 01:33:02;;;;;;;;;;;;;;;;;;4407937;32;20417;-85
2021/05/04 01:35:33;;;;;;;;;;;;;;;;;;4394366;32;19966;-84
2021/05/04 01:38:03;;;;;;;;;;;;;;;;;;4392910;32;20811;-84
2021/05/04 01:40:33;;;;;;;;;;;;;;;;;;4409443;32;19960;-84
2021/05/04 01:43:03;;;;;;;;;;;;;;;;;;4408549;32;20003;-84
2021/05/04 01:45:34;;;;;;;;;;;;;;;;;;4409224;32;20021;-84
2021/05/04 01:48:04;;;;;;;;;;;;;;;;;;4414152;32;19958;-84
2021/05/04 01:50:32;;;;;;;;;;;;;;;;;;4412831;32;20001;-84
2021/05/04 01:53:02;;;;;;;;;;;;;;;;;;4407322;32;20058;-84
2021/05/04 01:55:32;;;;;;;;;;;;;;;;;;4414392;32;19974;-84
2021/05/04 01:58:03;;;;;;;;;;;;;;;;;;4411053;32;20011;-84
2021/05/04 02:00:33;;;;;;;;;;;;;;;;;;4416650;32;20332;-84
2021/05/04 02:03:01;;;;;;;;;;;;;;;;;;4412857;32;20042;-84
2021/05/04 02:05:29;;;;;;;;;;;;;;;;;;4415784;32;20011;-84
2021/05/04 02:07:56;;;;;;;;;;;;;;;;;;4416425;32;20021;-84
2021/05/04 02:10:24;;;;;;;;;;;;;;;;;;4417348;32;19976;-83
2021/05/04 02:12:55;;;;;;;;;;;;;;;;;;4415507;32;20110;-84
2021/05/04 02:15:25;;;;;;;;;;;;;;;;;;4410043;32;19992;-84
2021/05/04 02:17:53;;;;;;;;;;;;;;;;;;4411202;32;19969;-83
2021/05/04 02:20:22;;;;;;;;;;;;;;;;;;4416025;32;20027;-84
2021/05/04 02:22:52;;;;;;;;;;;;;;;;;;4411494;32;19970;-84
2021/05/04 02:25:20;;;;;;;;;;;;;;;;;;4393256;32;19978;-85
2021/05/04 02:27:51;;;;;;;;;;;;;;;;;;4396650;32;19954;-84
2021/05/04 02:30:21;;;;;;;;;;;;;;;;;;4408096;32;19987;-84
2021/05/04 02:32:49;;;;;;;;;;;;;;;;;;4412910;32;19966;-84
2021/05/04 02:35:19;;;;;;;;;;;;;;;;;;4414827;32;19962;-83
2021/05/04 02:37:49;;;;;;;;;;;;;;;;;;4409789;32;19958;-85
2021/05/04 02:40:20;;;;;;;;;;;;;;;;;;4400402;32;19991;-85
2021/05/04 02:42:50;;;;;;;;;;;;;;;;;;4408332;32;19981;-84
2021/05/04 02:45:20;;;;;;;;;;;;;;;;;;4414599;32;20080;-84
2021/05/04 02:47:50;;;;;;;;;;;;;;;;;;4411437;32;19954;-84
2021/05/04 02:50:21;;;;;;;;;;;;;;;;;;4411986;32;19962;-84
2021/05/04 02:52:52;;;;;;;;;;;;;;;;;;4414455;32;19957;-85
2021/05/04 02:55:22;;;;;;;;;;;;;;;;;;4414573;32;20036;-83
2021/05/04 02:57:52;;;;;;;;;;;;;;;;;;4409684;32;20025;-84
2021/05/04 03:00:23;;;;;;;;;;;;;;;;;;4410968;32;19967;-84
2021/05/04 03:02:53;;;;;;;;;;;;;;;;;;4415468;32;19995;-84
2021/05/04 03:05:24;;;;;;;;;;;;;;;;;;4407689;32;20135;-84
2021/05/04 03:07:54;;;;;;;;;;;;;;;;;;4406717;32;20390;-84
2021/05/04 03:10:24;;;;;;;;;;;;;;;;;;4427900;27;19965;-94
2021/05/04 03:12:54;;;;;;;;;;;;;;;;;;4367572;32;19965;-96
2021/05/04 03:15:34;;;;;;;;;;;;;;;;;;4374490;32;19950;-96
2021/05/04 03:18:13;;;;;;;;;;;;;;;;;;4374264;32;19963;-96
2021/05/04 03:21:03;;;;;;;;;;;;;;;;;;4377012;32;19969;-96
2021/05/04 03:23:42;;;;;;;;;;;;;;;;;;4378208;32;19972;-96
2021/05/04 03:26:45;;;;;;;;;;;;;;;;;;4393369;32;19995;-96
2021/05/04 03:29:51;;;;;;;;;;;;;;;;;;4375944;32;19981;-96
2021/05/04 03:32:42;;;;;;;;;;;;;;;;;;4391253;32;19951;-96
2021/05/04 03:35:23;;;;;;;;;;;;;;;;;;4396181;32;19950;-96
2021/05/04 03:38:05;;;;;;;;;;;;;;;;;;4389238;32;19955;-96
2021/05/04 03:40:55;;;;;;;;;;;;;;;;;;4380389;32;19995;-96
2021/05/04 03:43:49;;;;;;;;;;;;;;;;;;4399128;32;19965;-96
2021/05/04 03:46:28;;;;;;;;;;;;;;;;;;4405078;32;19942;-96
2021/05/04 03:49:05;;;;;;;;;;;;;;;;;;4389943;32;20033;-96
2021/05/04 03:52:29;;;;;;;;;;;;;;;;;;4401369;32;20296;-96
2021/05/04 03:55:04;;;;;;;;;;;;;;;;;;4371884;32;20049;-96
2021/05/04 03:57:53;;;;;;;;;;;;;;;;;;4362106;32;19998;-96
2021/05/04 04:00:29;;;;;;;;;;;;;;;;;;4372508;32;20291;-96
2021/05/04 04:03:07;;;;;;;;;;;;;;;;;;4369986;32;19956;-96
2021/05/04 04:05:59;;;;;;;;;;;;;;;;;;4381775;32;19975;-96
2021/05/04 04:08:52;;;;;;;;;;;;;;;;;;4372821;32;20008;-96
2021/05/04 04:11:54;;;;;;;;;;;;;;;;;;4389497;32;19946;-96
2021/05/04 04:17:44;;;;;;;;;;;;;;;;;;4395842;32;19958;-96
2021/05/04 04:20:26;;;;;;;;;;;;;;;;;;4359444;32;19951;-96
2021/05/04 04:23:05;;;;;;;;;;;;;;;;;;4377664;32;20298;-96
2021/05/04 04:26:07;;;;;;;;;;;;;;;;;;4373763;32;19958;-96
2021/05/04 04:29:10;;;;;;;;;;;;;;;;;;4381454;32;20010;-96
2021/05/04 04:34:44;;;;;;;;;;;;;;;;;;4391437;32;19955;-96
2021/05/04 04:37:35;;;;;;;;;;;;;;;;;;4367883;32;20343;-96
2021/05/04 04:40:24;;;;;;;;;;;;;;;;;;;;;
2021/05/04 04:43:18;;;;;;;;;;;;;;;;;;4374388;32;19985;-96
2021/05/04 04:46:39;;;;;;;;;;;;;;;;;;4386383;32;20027;-96
2021/05/04 04:49:22;;;;;;;;;;;;;;;;;;4365469;32;19969;-96
2021/05/04 04:52:24;;;;;;;;;;;;;;;;;;4389092;32;19938;-96
2021/05/04 04:55:16;;;;;;;;;;;;;;;;;;4376209;32;19940;-96
2021/05/04 05:05:10;;;;;;;;;;;;;;;;;;4338889;33;20026;-96
2021/05/04 05:08:17;;;;;;;;;;;;;;;;;;4320777;33;20000;-96
2021/05/04 05:10:54;;;;;;;;;;;;;;;;;;4354815;32;20270;-96
2021/05/04 05:13:29;;;;;;;;;;;;;;;;;;4365210;32;20394;-96
2021/05/04 05:16:04;;;;;;;;;;;;;;;;;;4381715;32;19980;-96
2021/05/04 05:18:39;;;;;;;;;;;;;;;;;;4347007;32;19962;-96
2021/05/04 05:21:27;;;;;;;;;;;;;;;;;;4369931;32;19969;-96
2021/05/04 05:24:17;;;;;;;;;;;;;;;;;;4369218;32;19997;-96
2021/05/04 05:27:13;;;;;;;;;;;;;;;;;;4366523;32;19951;-96
2021/05/04 05:29:42;;;;;;;;;;;;;;;;;;4364978;32;19993;-96
2021/05/04 05:32:14;;;;;;;;;;;;;;;;;;4357734;32;20009;-96
2021/05/04 05:34:42;;;;;;;;;;;;;;;;;;4367171;32;19973;-96
2021/05/04 05:37:31;;;;;;;;;;;;;;;;;;4372475;32;19978;-95
2021/05/04 05:40:06;;;;;;;;;;;;;;;;;;4368491;32;19945;-96
2021/05/04 05:42:38;;;;;;;;;;;;;;;;;;4366952;32;19951;-96
2021/05/04 05:45:08;;;;;;;;;;;;;;;;;;4375418;32;20009;-96
2021/05/04 05:47:43;;;;;;;;;;;;;;;;;;4358901;32;19974;-95
2021/05/04 05:50:18;;;;;;;;;;;;;;;;;;4366982;32;19964;-96
2021/05/04 05:52:51;;;;;;;;;;;;;;;;;;4362189;32;19980;-96
2021/05/04 05:55:22;;;;;;;;;;;;;;;;;;4365044;32;19947;-96
2021/05/04 05:58:04;;;;;;;;;;;;;;;;;;4364627;32;19954;-96
2021/05/04 06:00:39;;;;;;;;;;;;;;;;;;4363121;32;19942;-96
2021/05/04 06:03:21;;;;;;;;;;;;;;;;;;4368210;32;20287;-96
2021/05/04 06:06:13;;;;;;;;;;;;;;;;;;4380348;32;20260;-96
2021/05/04 06:09:04;;;;;;;;;;;;;;;;;;4368573;32;20330;-96
2021/05/04 06:11:55;;;;;;;;;;;;;;;;;;4365086;32;19970;-96
2021/05/04 06:14:29;;;;;;;;;;;;;;;;;;4367486;32;19959;-96
2021/05/04 06:17:14;;;;;;;;;;;;;;;;;;4372674;32;19973;-96
2021/05/04 06:19:51;;;;;;;;;;;;;;;;;;4382791;32;19961;-96
2021/05/04 06:23:13;;;;;;;;;;;;;;;;;;4368825;32;19943;-96
2021/05/04 06:26:04;;;;;;;;;;;;;;;;;;4361372;32;19985;-96
2021/05/04 06:28:56;;;;;;;;;;;;;;;;;;4378605;32;19946;-96
2021/05/04 06:31:30;;;;;;;;;;;;;;;;;;4376266;32;19954;-96
2021/05/04 06:34:09;;;;;;;;;;;;;;;;;;4372333;32;19942;-96
2021/05/04 06:36:42;;;;;;;;;;;;;;;;;;4381588;32;19955;-96
2021/05/04 06:39:56;;;;;;;;;;;;;;;;;;4389871;32;20330;-96
2021/05/04 06:42:54;;;;;;;;;;;;;;;;;;4376227;32;19950;-96
2021/05/04 06:46:11;;;;;;;;;;;;;;;;;;4384833;32;20015;-96
2021/05/04 06:49:09;;;;;;;;;;;;;;;;;;4376396;32;19931;-96
2021/05/04 06:52:16;;;;;;;;;;;;;;;;;;4384184;32;19972;-96
2021/05/04 06:54:50;;;;;;;;;;;;;;;;;;4364708;32;19974;-94
2021/05/04 06:57:19;;;;;;;;;;;;;;;;;;4340643;32;19982;-96
2021/05/04 06:59:51;;;;;;;;;;;;;;;;;;4360893;32;19980;-96
2021/05/04 07:02:21;;;;;;;;;;;;;;;;;;4371096;32;19984;-94
2021/05/04 07:04:55;;;;;;;;;;;;;;;;;;4368719;32;20354;-94
2021/05/04 07:07:23;;;;;;;;;;;;;;;;;;4365764;32;19994;-94
2021/05/04 07:10:02;;;;;;;;;;;;;;;;;;4362320;32;19997;-94
2021/05/04 07:12:30;;;;;;;;;;;;;;;;;;4365037;32;19955;-94
2021/05/04 07:14:59;;;;;;;;;;;;;;;;;;4352879;32;19947;-95
2021/05/04 07:17:30;;;;;;;;;;;;;;;;;;4367851;32;19954;-95
2021/05/04 07:19:58;;;;;;;;;;;;;;;;;;4354961;32;19994;-94
2021/05/04 07:22:34;;;;;;;;;;;;;;;;;;4354794;32;19954;-93
2021/05/04 07:25:04;;;;;;;;;;;;;;;;;;4368199;32;19951;-95
2021/05/04 07:27:37;;;;;;;;;;;;;;;;;;4365454;32;20702;-94
2021/05/04 07:30:14;;;;;;;;;;;;;;;;;;4367814;32;20013;-94
2021/05/04 07:32:47;;;;;;;;;;;;;;;;;;4369250;32;20313;-94
2021/05/04 07:35:15;;;;;;;;;;;;;;;;;;4363714;32;19947;-94
2021/05/04 07:37:50;;;;;;;;;;;;;;;;;;4370728;32;19967;-96
2021/05/04 07:40:24;;;;;;;;;;;;;;;;;;4368095;32;19997;-96
2021/05/04 07:42:54;;;;;;;;;;;;;;;;;;4367592;32;19951;-96
2021/05/04 07:45:41;;;;;;;;;;;;;;;;;;4357402;32;19950;-96
2021/05/04 07:48:19;;;;;;;;;;;;;;;;;;4371506;32;19989;-96
2021/05/04 07:51:04;;;;;;;;;;;;;;;;;;4369528;32;20335;-96
2021/05/04 07:53:41;;;;;;;;;;;;;;;;;;4368579;32;19974;-95
2021/05/04 07:56:23;;;;;;;;;;;;;;;;;;4365815;32;19947;-96
2021/05/04 07:58:54;;;;;;;;;;;;;;;;;;4384871;32;19976;-96
2021/05/04 08:01:36;;;;;;;;;;;;;;;;;;4358380;32;19999;-96
2021/05/04 08:04:10;;;;;;;;;;;;;;;;;;4366274;32;19952;-96
2021/05/04 08:06:48;;;;;;;;;;;;;;;;;;4372613;32;19963;-96
2021/05/04 08:09:29;;;;;;;;;;;;;;;;;;4372149;32;19950;-96
2021/05/04 08:12:11;;;;;;;;;;;;;;;;;;4367389;32;19989;-96
2021/05/04 08:14:40;;;;;;;;;;;;;;;;;;4373887;32;19946;-96
2021/05/04 08:17:20;;;;;;;;;;;;;;;;;;4381254;32;19994;-96
2021/05/04 08:20:02;;;;;;;;;;;;;;;;;;4365313;32;19990;-96
2021/05/04 08:22:50;;;;;;;;;;;;;;;;;;4382755;32;19950;-96
2021/05/04 08:25:55;;;;;;;;;;;;;;;;;;4375919;32;19969;-96
2021/05/04 08:29:02;;;;;;;;;;;;;;;;;;4378947;32;19959;-96
2021/05/04 08:32:13;;;;;;;;;;;;;;;;;;4411838;32;19939;-96
2021/05/04 08:35:08;;;;;;;;;;;;;;;;;;4400645;32;19998;-96
2021/05/04 08:37:56;;;;;;;;;;;;;;;;;;4368373;32;20006;-96
2021/05/04 08:43:32;;;;;;;;;;;;;;;;;;4377627;32;19986;-95
2021/05/04 08:46:22;;;;;;;;;;;;;;;;;;4366544;32;19962;-95
2021/05/04 08:48:58;;;;;;;;;;;;;;;;;;4360846;32;20802;-94
2021/05/04 08:51:28;;;;;;;;;;;;;;;;;;4366635;32;19965;-96
2021/05/04 08:54:05;;;;;;;;;;;;;;;;;;4345718;32;20410;-96
2021/05/04 08:56:54;;;;;;;;;;;;;;;;;;4367765;32;19967;-95
2021/05/04 08:59:33;;;;;;;;;;;;;;;;;;4349498;32;19989;-96
2021/05/04 09:02:17;;;;;;;;;;;;;;;;;;4368009;32;19979;-95
2021/05/04 09:04:56;;;;;;;;;;;;;;;;;;4364202;32;19947;-96
2021/05/04 09:07:33;;;;;;;;;;;;;;;;;;4361901;32;20361;-96
2021/05/04 09:10:36;;;;;;;;;;;;;;;;;;4369853;32;19989;-96
2021/05/04 09:13:14;;;;;;;;;;;;;;;;;;4351545;32;19987;-96
2021/05/04 09:16:21;;;;;;;;;;;;;;;;;;4356056;32;20001;-96
2021/05/04 09:22:16;;;;;;;;;;;;;;;;;;;;;
2021/05/04 09:27:38;;;;;;;;;;;;;;;;;;4367619;32;20291;-96
2021/05/04 09:30:24;;;;;;;;;;;;;;;;;;4368387;32;20362;-96
2021/05/04 09:33:28;;;;;;;;;;;;;;;;;;4325133;33;19978;-96
2021/05/04 09:39:19;;;;;;;;;;;;;;;;;;4327901;33;19964;-83
2021/05/04 09:41:49;;;;;;;;;;;;;;;;;;4333485;33;20390;-83
2021/05/04 09:44:20;;;;;;;;;;;;;;;;;;4316301;33;20002;-83
2021/05/04 09:46:50;;;;;;;;;;;;;;;;;;4316651;33;20471;-82
2021/05/04 09:49:21;;;;;;;;;;;;;;;;;;4330727;33;19998;-83
2021/05/04 09:51:51;;;;;;;;;;;;;;;;;;4333749;33;19964;-82
2021/05/04 09:54:26;;;;;;;;;;;;;;;;;;4327284;33;19963;-82
2021/05/04 09:56:56;;;;;;;;;;;;;;;;;;4322513;33;19968;-82
2021/05/04 09:59:24;;;;;;;;;;;;;;;;;;4329470;33;20047;-83
2021/05/04 10:01:54;;;;;;;;;;;;;;;;;;4325024;33;20025;-83
2021/05/04 10:04:27;;;;;;;;;;;;;;;;;;4347082;32;20006;-82
2021/05/04 10:06:54;;;;;;;;;;;;;;;;;;4358725;32;19951;-84
2021/05/04 10:09:25;;;;;;;;;;;;;;;;;;4361621;32;19989;-83
2021/05/04 10:11:55;;;;;;;;;;;;;;;;;;4357648;32;20003;-83
2021/05/04 10:14:25;;;;;;;;;;;;;;;;;;4360653;32;20050;-83
2021/05/04 10:16:53;;;;;;;;;;;;;;;;;;4359144;32;20276;-83
2021/05/04 10:19:23;;;;;;;;;;;;;;;;;;4355394;32;20032;-82
2021/05/04 10:21:54;;;;;;;;;;;;;;;;;;4370996;32;20020;-83
2021/05/04 10:24:24;;;;;;;;;;;;;;;;;;4362457;32;19956;-83
2021/05/04 10:26:54;;;;;;;;;;;;;;;;;;4362731;32;20670;-83
2021/05/04 10:29:25;;;;;;;;;;;;;;;;;;4365219;32;20058;-83
2021/05/04 10:32:01;;;;;;;;;;;;;;;;;;4358029;32;20022;-84
2021/05/04 10:34:33;;;;;;;;;;;;;;;;;;4362175;32;19978;-83
2021/05/04 10:37:04;;;;;;;;;;;;;;;;;;4357337;32;19951;-84
2021/05/04 10:39:34;;;;;;;;;;;;;;;;;;4363206;32;20013;-84
2021/05/04 10:42:05;;;;;;;;;;;;;;;;;;4362293;32;19993;-83
2021/05/04 10:44:35;;;;;;;;;;;;;;;;;;4367741;32;20003;-83
2021/05/04 10:47:03;;;;;;;;;;;;;;;;;;4361046;32;19979;-84
2021/05/04 10:49:34;;;;;;;;;;;;;;;;;;4363769;32;20037;-83
2021/05/04 10:52:04;;;;;;;;;;;;;;;;;;4361721;32;20411;-83
2021/05/04 10:54:34;;;;;;;;;;;;;;;;;;4367680;32;20034;-83
2021/05/04 10:57:05;;;;;;;;;;;;;;;;;;4360230;32;19974;-84
2021/05/04 10:59:35;;;;;;;;;;;;;;;;;;4339497;32;20388;-83
2021/05/04 11:02:03;;;;;;;;;;;;;;;;;;4362490;32;20038;-84
2021/05/04 11:04:33;;;;;;;;;;;;;;;;;;4364593;32;19963;-83
2021/05/04 11:07:03;;;;;;;;;;;;;;;;;;4342756;32;19955;-84
2021/05/04 11:09:38;;;;;;;;;;;;;;;;;;4366093;32;20086;-82
2021/05/04 11:12:09;;;;;;;;;;;;;;;;;;4355866;32;20338;-84
2021/05/04 11:14:40;;;;;;;;;;;;;;;;;;4361468;32;19973;-84
2021/05/04 11:17:10;;;;;;;;;;;;;;;;;;4354348;32;20031;-83
2021/05/04 11:19:41;;;;;;;;;;;;;;;;;;4356016;32;20038;-84
2021/05/04 11:22:12;;;;;;;;;;;;;;;;;;4356485;32;19963;-83
2021/05/04 11:24:41;;;;;;;;;;;;;;;;;;4359180;32;20011;-86
2021/05/04 11:27:12;;;;;;;;;;;;;;;;;;4362384;32;19970;-86
2021/05/04 11:29:45;;;;;;;;;;;;;;;;;;4360208;32;20026;-86
2021/05/04 11:32:15;;;;;;;;;;;;;;;;;;4361846;32;19962;-86
2021/05/04 11:34:46;;;;;;;;;;;;;;;;;;4354145;32;19966;-87
2021/05/04 11:37:16;;;;;;;;;;;;;;;;;;4363548;32;20002;-86
2021/05/04 11:39:47;;;;;;;;;;;;;;;;;;4351197;33;19989;-86
2021/05/04 11:42:14;;;;;;;;;;;;;;;;;;4367006;32;20549;-85
2021/05/04 11:44:43;;;;;;;;;;;;;;;;;;4364766;32;20678;-85
2021/05/04 11:47:13;;;;;;;;;;;;;;;;;;4359038;32;19969;-85
2021/05/04 11:49:43;;;;;;;;;;;;;;;;;;4357084;32;19955;-85
2021/05/04 11:52:16;;;;;;;;;;;;;;;;;;4356797;32;20077;-85
2021/05/04 11:54:48;;;;;;;;;;;;;;;;;;4357000;32;19989;-86
2021/05/04 11:57:33;;;;;;;;;;;;;;;;;;4349951;32;19971;-86
2021/05/04 12:00:03;;;;;;;;;;;;;;;;;;4352106;32;20325;-85
2021/05/04 12:02:41;;;;;;;;;;;;;;;;;;4357813;32;19978;-86
2021/05/04 12:05:14;;;;;;;;;;;;;;;;;;4362143;32;19936;-86
2021/05/04 12:07:44;;;;;;;;;;;;;;;;;;4349663;32;20023;-86
2021/05/04 12:10:15;;;;;;;;;;;;;;;;;;4354654;32;19963;-85
2021/05/04 12:12:45;;;;;;;;;;;;;;;;;;4363892;32;19959;-85
2021/05/04 12:15:15;;;;;;;;;;;;;;;;;;4357589;32;19967;-86
2021/05/04 12:17:45;;;;;;;;;;;;;;;;;;4351723;32;20328;-86
2021/05/04 12:20:15;;;;;;;;;;;;;;;;;;4349108;32;20724;-86
2021/05/04 12:22:45;;;;;;;;;;;;;;;;;;4349585;32;19994;-86
2021/05/04 12:25:16;;;;;;;;;;;;;;;;;;4348887;32;20407;-86
2021/05/04 12:27:47;;;;;;;;;;;;;;;;;;4349149;32;19952;-86
2021/05/04 12:30:17;;;;;;;;;;;;;;;;;;4349304;32;20032;-86
2021/05/04 12:32:47;;;;;;;;;;;;;;;;;;4337186;32;19983;-86
2021/05/04 12:35:21;;;;;;;;;;;;;;;;;;4343393;32;20065;-86
2021/05/04 12:37:51;;;;;;;;;;;;;;;;;;4343787;32;19964;-85
2021/05/04 12:40:21;;;;;;;;;;;;;;;;;;4348711;32;20144;-86
2021/05/04 12:42:52;;;;;;;;;;;;;;;;;;4361840;32;20008;-85
2021/05/04 12:45:23;;;;;;;;;;;;;;;;;;4337587;32;19963;-85
2021/05/04 12:47:57;;;;;;;;;;;;;;;;;;4347766;32;19951;-86
2021/05/04 12:50:29;;;;;;;;;;;;;;;;;;4353222;32;19971;-85
2021/05/04 12:53:00;;;;;;;;;;;;;;;;;;4348869;32;20468;-85
2021/05/04 12:55:30;;;;;;;;;;;;;;;;;;4348389;32;20007;-85
2021/05/04 12:58:00;;;;;;;;;;;;;;;;;;4348428;32;20002;-86
2021/05/04 13:00:30;;;;;;;;;;;;;;;;;;4344872;32;20005;-86
2021/05/04 13:03:00;;;;;;;;;;;;;;;;;;4351031;32;20427;-86
2021/05/04 13:05:31;;;;;;;;;;;;;;;;;;4354831;32;19956;-85
2021/05/04 13:08:08;;;;;;;;;;;;;;;;;;4349677;32;20007;-85
2021/05/04 13:10:59;;;;;;;;;;;;;;;;;;4361010;32;20333;-85
2021/05/04 13:32:24;;;;;;;;;;;;;;;;;;4346283;32;19963;-85
2021/05/04 13:35:01;;;;;;;;;;;;;;;;;;4330226;32;20403;-86
2021/05/04 13:37:52;;;;;;;;;;;;;;;;;;4312965;32;19991;-85
2021/05/04 13:49:12;;;;;;;;;;;;;;;;;;4325632;32;19998;-86
2021/05/04 13:51:42;;;;;;;;;;;;;;;;;;4340946;32;19979;-86
2021/05/04 13:54:12;;;;;;;;;;;;;;;;;;4340600;32;20046;-86
2021/05/04 13:56:43;;;;;;;;;;;;;;;;;;4350130;32;19964;-86
2021/05/04 13:59:13;;;;;;;;;;;;;;;;;;4346973;32;19986;-85
2021/05/04 14:01:48;;;;;;;;;;;;;;;;;;4351068;32;20083;-85
2021/05/04 14:04:29;;;;;;;;;;;;;;;;;;4344034;32;19963;-86
2021/05/04 14:16:32;;;;;;;;;;;;;;;;;;4341697;32;20022;-85
2021/05/04 14:26:48;;;;;;;;;;;;;;;;;;4353077;32;20021;-84
2021/05/04 14:29:16;;;;;;;;;;;;;;;;;;4339063;32;20026;-84
2021/05/04 14:31:47;;;;;;;;;;;;;;;;;;4342298;32;19963;-84
2021/05/04 14:34:19;;;;;;;;;;;;;;;;;;4345287;32;20013;-84
2021/05/04 14:55:53;;;;;;;;;;;;;;;;;;4355200;32;20921;-84
2021/05/04 14:58:32;;;;;;;;;;;;;;;;;;4352653;32;19986;-84
2021/05/04 15:03:47;;;;;;;;;;;;;;;;;;4344634;32;19969;-84
2021/05/04 15:06:17;;;;;;;;;;;;;;;;;;4357969;32;19990;-85
2021/05/04 15:08:48;;;;;;;;;;;;;;;;;;4361970;32;20045;-85
2021/05/04 15:11:18;;;;;;;;;;;;;;;;;;4349150;32;20021;-84
2021/05/04 15:13:58;;;;;;;;;;;;;;;;;;4363251;32;19978;-84
2021/05/04 15:16:48;;;;;;;;;;;;;;;;;;4351615;32;19996;-84
2021/05/04 15:22:07;;;;;;;;;;;;;;;;;;4359608;32;20022;-85
2021/05/04 15:24:37;;;;;;;;;;;;;;;;;;4354755;33;19951;-84
2021/05/04 15:27:09;;;;;;;;;;;;;;;;;;4360395;32;20204;-85
2021/05/04 15:29:41;;;;;;;;;;;;;;;;;;4360216;32;19967;-84
2021/05/04 15:32:19;;;;;;;;;;;;;;;;;;4362466;32;20416;-84
2021/05/04 15:34:50;;;;;;;;;;;;;;;;;;4342939;32;22650;-84
2021/05/04 15:37:20;;;;;;;;;;;;;;;;;;4348169;32;19971;-84
2021/05/04 15:39:56;;;;;;;;;;;;;;;;;;4356715;32;19986;-84
2021/05/04 15:42:27;;;;;;;;;;;;;;;;;;4353162;32;20074;-84
2021/05/04 15:44:59;;;;;;;;;;;;;;;;;;4329987;32;19959;-84
2021/05/04 15:53:08;;;;;;;;;;;;;;;;;;4355222;32;19963;-85
2021/05/04 15:56:10;;;;;;;;;;;;;;;;;;4355943;32;20008;-84
2021/05/04 16:07:03;;;;;;;;;;;;;;;;;;4343815;32;20310;-84
2021/05/04 16:09:37;;;;;;;;;;;;;;;;;;4349709;32;19991;-84
2021/05/04 16:12:07;;;;;;;;;;;;;;;;;;4352427;32;19985;-84
2021/05/04 16:14:38;;;;;;;;;;;;;;;;;;4343570;32;20002;-85
2021/05/04 16:17:08;;;;;;;;;;;;;;;;;;4335082;32;20728;-85
2021/05/04 16:19:43;;;;;;;;;;;;;;;;;;4339056;32;19979;-86
2021/05/04 16:22:23;;;;;;;;;;;;;;;;;;4352674;32;19985;-85
2021/05/04 16:25:01;;;;;;;;;;;;;;;;;;4341447;32;20030;-84
2021/05/04 16:27:50;;;;;;;;;;;;;;;;;;4350310;32;20632;-84
2021/05/04 16:30:21;;;;;;;;;;;;;;;;;;4341536;32;20010;-84
2021/05/04 16:32:52;;;;;;;;;;;;;;;;;;4350417;32;20003;-84
2021/05/04 16:35:22;;;;;;;;;;;;;;;;;;4349912;32;20137;-84
2021/05/04 16:37:52;;;;;;;;;;;;;;;;;;4349105;32;19999;-84
2021/05/04 16:40:23;;;;;;;;;;;;;;;;;;4357005;32;20309;-84
2021/05/04 16:42:53;;;;;;;;;;;;;;;;;;4357422;32;20104;-84
2021/05/04 16:45:24;;;;;;;;;;;;;;;;;;4358685;32;19993;-84
2021/05/04 16:47:51;;;;;;;;;;;;;;;;;;4360784;32;19962;-84
2021/05/04 16:50:19;;;;;;;;;;;;;;;;;;4358902;32;20006;-85
2021/05/04 16:52:49;;;;;;;;;;;;;;;;;;4346710;32;20026;-85
2021/05/04 16:55:21;;;;;;;;;;;;;;;;;;4333458;32;20009;-84
2021/05/04 16:57:51;;;;;;;;;;;;;;;;;;4348980;32;20018;-84
2021/05/04 17:00:38;;;;;;;;;;;;;;;;;;4334630;32;19959;-84
2021/05/04 17:03:17;;;;;;;;;;;;;;;;;;4348107;32;20007;-84
2021/05/04 17:05:51;;;;;;;;;;;;;;;;;;4358372;32;20016;-84
2021/05/04 17:08:34;;;;;;;;;;;;;;;;;;4360402;32;19997;-84
2021/05/04 17:11:06;;;;;;;;;;;;;;;;;;4359222;32;20002;-85
2021/05/04 17:13:37;;;;;;;;;;;;;;;;;;4355650;32;20033;-84
2021/05/04 17:16:07;;;;;;;;;;;;;;;;;;4360359;32;20049;-85
2021/05/04 17:18:37;;;;;;;;;;;;;;;;;;4354253;32;20041;-85
2021/05/04 17:21:07;;;;;;;;;;;;;;;;;;4355783;32;19967;-84
2021/05/04 17:23:38;;;;;;;;;;;;;;;;;;4343512;32;20007;-86
2021/05/04 17:26:08;;;;;;;;;;;;;;;;;;4351878;32;19997;-86
2021/05/04 17:28:39;;;;;;;;;;;;;;;;;;4356957;32;20009;-84
2021/05/04 17:31:09;;;;;;;;;;;;;;;;;;4358837;32;20395;-84
2021/05/04 17:33:37;;;;;;;;;;;;;;;;;;4351089;32;21245;-85
2021/05/04 17:36:04;;;;;;;;;;;;;;;;;;4342557;32;19999;-84
2021/05/04 17:38:36;;;;;;;;;;;;;;;;;;4355331;32;19989;-84
2021/05/04 17:41:08;;;;;;;;;;;;;;;;;;4357280;32;20001;-85
2021/05/04 17:43:38;;;;;;;;;;;;;;;;;;4333434;32;19959;-84
2021/05/04 17:46:08;;;;;;;;;;;;;;;;;;4354896;32;20051;-84
2021/05/04 17:48:36;;;;;;;;;;;;;;;;;;4359899;32;20357;-85
2021/05/04 17:51:04;;;;;;;;;;;;;;;;;;4364697;32;20011;-84
2021/05/04 17:53:34;;;;;;;;;;;;;;;;;;4357416;32;20284;-84
2021/05/04 17:56:04;;;;;;;;;;;;;;;;;;4331594;32;19965;-85
2021/05/04 17:58:34;;;;;;;;;;;;;;;;;;4330552;32;20050;-84
2021/05/04 18:01:05;;;;;;;;;;;;;;;;;;4338614;32;20317;-85
2021/05/04 18:03:41;;;;;;;;;;;;;;;;;;4357915;32;20024;-84
2021/05/04 18:06:24;;;;;;;;;;;;;;;;;;4340842;32;20072;-85
2021/05/04 18:08:58;;;;;;;;;;;;;;;;;;4341651;32;20044;-85
2021/05/04 18:11:29;;;;;;;;;;;;;;;;;;4338845;32;20299;-84
2021/05/04 18:19:41;;;;;;;;;;;;;;;;;;4349630;32;19952;-85
2021/05/04 18:22:12;;;;;;;;;;;;;;;;;;4354839;32;19963;-84
2021/05/04 18:24:43;;;;;;;;;;;;;;;;;;4334593;32;20006;-85
2021/05/04 18:27:13;;;;;;;;;;;;;;;;;;4329770;32;20430;-85
2021/05/04 18:29:49;;;;;;;;;;;;;;;;;;4342997;32;20624;-84
2021/05/04 18:32:20;;;;;;;;;;;;;;;;;;4340733;32;20031;-84
2021/05/04 18:35:06;;;;;;;;;;;;;;;;;;4342607;32;19971;-85
2021/05/04 18:38:14;;;;;;;;;;;;;;;;;;4327197;32;20003;-85
2021/05/04 18:43:45;;;;;;;;;;;;;;;;;;4344516;32;19958;-83
2021/05/04 19:07:00;;;;;;;;;;;;;;;;;;4345165;32;19991;-84
2021/05/04 20:09:36;;;;;;;;;;;;;;;;;;4332875;33;20001;-85
2021/05/04 20:12:10;;;;;;;;;;;;;;;;;;4340487;33;19960;-84
2021/05/04 20:14:40;;;;;;;;;;;;;;;;;;4341881;33;19971;-84
2021/05/04 20:17:15;;;;;;;;;;;;;;;;;;4338782;32;19964;-86
2021/05/04 20:19:46;;;;;;;;;;;;;;;;;;4332632;33;20476;-84
2021/05/04 20:22:17;;;;;;;;;;;;;;;;;;4336214;33;20010;-84
2021/05/04 20:24:48;;;;;;;;;;;;;;;;;;4347495;33;19979;-84
2021/05/04 20:27:19;;;;;;;;;;;;;;;;;;4339311;33;19959;-84
2021/05/04 20:29:57;;;;;;;;;;;;;;;;;;4346299;32;20022;-85
2021/05/04 20:32:34;;;;;;;;;;;;;;;;;;4346238;33;20407;-84
2021/05/04 20:35:02;;;;;;;;;;;;;;;;;;4326204;33;19986;-84
2021/05/04 20:37:33;;;;;;;;;;;;;;;;;;4347435;32;19973;-83
2021/05/04 20:40:03;;;;;;;;;;;;;;;;;;4359176;32;20317;-84
2021/05/04 20:42:35;;;;;;;;;;;;;;;;;;4350210;32;19978;-84
2021/05/04 20:45:05;;;;;;;;;;;;;;;;;;4357214;32;20015;-84
2021/05/04 20:47:39;;;;;;;;;;;;;;;;;;4353898;32;20141;-84
2021/05/04 20:50:09;;;;;;;;;;;;;;;;;;4357360;32;19959;-84
2021/05/04 20:52:39;;;;;;;;;;;;;;;;;;4363185;32;20022;-86
2021/05/04 20:55:10;;;;;;;;;;;;;;;;;;4347568;32;19955;-84
2021/05/04 20:57:40;;;;;;;;;;;;;;;;;;4366588;32;20018;-85
2021/05/04 21:00:12;;;;;;;;;;;;;;;;;;4361499;32;19959;-84
2021/05/04 21:02:45;;;;;;;;;;;;;;;;;;4357443;32;19970;-84